<?xml version="1.0" encoding="UTF-8" standalone="no" ?>
<gpx xmlns="http://www.topografix.com/GPX/1/1" xmlns:xsi="http://www.w3.org/2001/XMLSchema-instance" xsi:schemaLocation="http://www.topografix.com/GPX/1/1 http://www.topografix.com/GPX/1/1/gpx.xsd" version="1.1" creator="VisuGPX - https://www.visugpx.com">
  <metadata>
    <name>Ballade La Rochelle</name>
    <desc><![CDATA[Une promenade dans les rues de La Rochelle, très agréable qui vous fera découvrir la vieille ville et tous ses charmes.
]]></desc>
  </metadata>
  <trk>
    <name><![CDATA[Déambulation dans La Rochelle]]></name>
    <trkseg>
      <trkpt lat="46.16211" lon="-1.1531">
        <ele>11</ele>
        <time>2016-09-04T09:09:51+02:00</time>
      </trkpt>
      <trkpt lat="46.16225" lon="-1.15311">
        <ele>11</ele>
        <time>2016-09-04T09:09:56+02:00</time>
      </trkpt>
      <trkpt lat="46.16237" lon="-1.15303">
        <ele>10</ele>
        <time>2016-09-04T09:10:01+02:00</time>
      </trkpt>
      <trkpt lat="46.16227" lon="-1.15288">
        <ele>11</ele>
        <time>2016-09-04T09:10:06+02:00</time>
      </trkpt>
      <trkpt lat="46.16225" lon="-1.15286">
        <ele>12</ele>
        <time>2016-09-04T09:10:11+02:00</time>
      </trkpt>
      <trkpt lat="46.1622" lon="-1.1528">
        <ele>12</ele>
        <time>2016-09-04T09:10:16+02:00</time>
      </trkpt>
      <trkpt lat="46.16215" lon="-1.15279">
        <ele>12</ele>
        <time>2016-09-04T09:10:21+02:00</time>
      </trkpt>
      <trkpt lat="46.16214" lon="-1.15276">
        <ele>12</ele>
        <time>2016-09-04T09:10:26+02:00</time>
      </trkpt>
      <trkpt lat="46.16209" lon="-1.15268">
        <ele>13</ele>
        <time>2016-09-04T09:10:31+02:00</time>
      </trkpt>
      <trkpt lat="46.16204" lon="-1.15264">
        <ele>13</ele>
        <time>2016-09-04T09:10:36+02:00</time>
      </trkpt>
      <trkpt lat="46.16202" lon="-1.15236">
        <ele>14</ele>
        <time>2016-09-04T09:10:41+02:00</time>
      </trkpt>
      <trkpt lat="46.16201" lon="-1.1523">
        <ele>14</ele>
        <time>2016-09-04T09:10:46+02:00</time>
      </trkpt>
      <trkpt lat="46.16201" lon="-1.15218">
        <ele>14</ele>
        <time>2016-09-04T09:10:51+02:00</time>
      </trkpt>
      <trkpt lat="46.16197" lon="-1.15202">
        <ele>14</ele>
        <time>2016-09-04T09:10:56+02:00</time>
      </trkpt>
      <trkpt lat="46.16197" lon="-1.15198">
        <ele>14</ele>
        <time>2016-09-04T09:11:01+02:00</time>
      </trkpt>
      <trkpt lat="46.16196" lon="-1.15195">
        <ele>14</ele>
        <time>2016-09-04T09:11:06+02:00</time>
      </trkpt>
      <trkpt lat="46.16194" lon="-1.15167">
        <ele>15</ele>
        <time>2016-09-04T09:11:11+02:00</time>
      </trkpt>
      <trkpt lat="46.16196" lon="-1.15157">
        <ele>14</ele>
        <time>2016-09-04T09:11:16+02:00</time>
      </trkpt>
      <trkpt lat="46.16197" lon="-1.15136">
        <ele>14</ele>
        <time>2016-09-04T09:11:21+02:00</time>
      </trkpt>
      <trkpt lat="46.16198" lon="-1.15132">
        <ele>14</ele>
        <time>2016-09-04T09:11:26+02:00</time>
      </trkpt>
      <trkpt lat="46.16193" lon="-1.15109">
        <ele>14</ele>
        <time>2016-09-04T09:11:31+02:00</time>
      </trkpt>
      <trkpt lat="46.16192" lon="-1.15108">
        <ele>13</ele>
        <time>2016-09-04T09:11:36+02:00</time>
      </trkpt>
      <trkpt lat="46.16191" lon="-1.15074">
        <ele>13</ele>
        <time>2016-09-04T09:11:41+02:00</time>
      </trkpt>
      <trkpt lat="46.16184" lon="-1.15046">
        <ele>12</ele>
        <time>2016-09-04T09:11:46+02:00</time>
      </trkpt>
      <trkpt lat="46.16182" lon="-1.15026">
        <ele>11</ele>
        <time>2016-09-04T09:11:51+02:00</time>
      </trkpt>
      <trkpt lat="46.16175" lon="-1.15003">
        <ele>10</ele>
        <time>2016-09-04T09:11:56+02:00</time>
      </trkpt>
      <trkpt lat="46.16177" lon="-1.14988">
        <ele>10</ele>
        <time>2016-09-04T09:12:01+02:00</time>
      </trkpt>
      <trkpt lat="46.16186" lon="-1.14979">
        <ele>10</ele>
        <time>2016-09-04T09:12:06+02:00</time>
      </trkpt>
      <trkpt lat="46.162" lon="-1.14969">
        <ele>10</ele>
        <time>2016-09-04T09:12:11+02:00</time>
      </trkpt>
      <trkpt lat="46.16201" lon="-1.14954">
        <ele>10</ele>
        <time>2016-09-04T09:12:16+02:00</time>
      </trkpt>
      <trkpt lat="46.16195" lon="-1.14929">
        <ele>9</ele>
        <time>2016-09-04T09:12:21+02:00</time>
      </trkpt>
      <trkpt lat="46.16191" lon="-1.14898">
        <ele>9</ele>
        <time>2016-09-04T09:12:26+02:00</time>
      </trkpt>
      <trkpt lat="46.16185" lon="-1.14869">
        <ele>8</ele>
        <time>2016-09-04T09:12:31+02:00</time>
      </trkpt>
      <trkpt lat="46.1616" lon="-1.14879">
        <ele>8</ele>
        <time>2016-09-04T09:12:36+02:00</time>
      </trkpt>
      <trkpt lat="46.16143" lon="-1.14893">
        <ele>8</ele>
        <time>2016-09-04T09:12:41+02:00</time>
      </trkpt>
      <trkpt lat="46.16129" lon="-1.14885">
        <ele>9</ele>
        <time>2016-09-04T09:12:46+02:00</time>
      </trkpt>
      <trkpt lat="46.16121" lon="-1.14871">
        <ele>9</ele>
        <time>2016-09-04T09:12:51+02:00</time>
      </trkpt>
      <trkpt lat="46.16112" lon="-1.14866">
        <ele>9</ele>
        <time>2016-09-04T09:12:56+02:00</time>
      </trkpt>
      <trkpt lat="46.16092" lon="-1.14851">
        <ele>8</ele>
        <time>2016-09-04T09:13:01+02:00</time>
      </trkpt>
      <trkpt lat="46.16077" lon="-1.14839">
        <ele>8</ele>
        <time>2016-09-04T09:13:06+02:00</time>
      </trkpt>
      <trkpt lat="46.16072" lon="-1.14839">
        <ele>8</ele>
        <time>2016-09-04T09:13:11+02:00</time>
      </trkpt>
      <trkpt lat="46.1606" lon="-1.14831">
        <ele>8</ele>
        <time>2016-09-04T09:13:16+02:00</time>
      </trkpt>
      <trkpt lat="46.16049" lon="-1.14825">
        <ele>8</ele>
        <time>2016-09-04T09:13:21+02:00</time>
      </trkpt>
      <trkpt lat="46.16045" lon="-1.14805">
        <ele>8</ele>
        <time>2016-09-04T09:13:26+02:00</time>
      </trkpt>
      <trkpt lat="46.16037" lon="-1.1478">
        <ele>7</ele>
        <time>2016-09-04T09:13:31+02:00</time>
      </trkpt>
      <trkpt lat="46.16035" lon="-1.14762">
        <ele>7</ele>
        <time>2016-09-04T09:13:36+02:00</time>
      </trkpt>
      <trkpt lat="46.16031" lon="-1.14733">
        <ele>7</ele>
        <time>2016-09-04T09:13:41+02:00</time>
      </trkpt>
      <trkpt lat="46.16021" lon="-1.14737">
        <ele>7</ele>
        <time>2016-09-04T09:13:46+02:00</time>
      </trkpt>
      <trkpt lat="46.15998" lon="-1.14744">
        <ele>7</ele>
        <time>2016-09-04T09:13:51+02:00</time>
      </trkpt>
      <trkpt lat="46.15986" lon="-1.14746">
        <ele>6</ele>
        <time>2016-09-04T09:13:56+02:00</time>
      </trkpt>
      <trkpt lat="46.15973" lon="-1.14757">
        <ele>6</ele>
        <time>2016-09-04T09:14:01+02:00</time>
      </trkpt>
      <trkpt lat="46.15957" lon="-1.14745">
        <ele>5</ele>
        <time>2016-09-04T09:14:06+02:00</time>
      </trkpt>
      <trkpt lat="46.15942" lon="-1.14758">
        <ele>5</ele>
        <time>2016-09-04T09:14:11+02:00</time>
      </trkpt>
      <trkpt lat="46.15921" lon="-1.14761">
        <ele>4</ele>
        <time>2016-09-04T09:14:16+02:00</time>
      </trkpt>
      <trkpt lat="46.15912" lon="-1.1477">
        <ele>4</ele>
        <time>2016-09-04T09:14:21+02:00</time>
      </trkpt>
      <trkpt lat="46.15898" lon="-1.14776">
        <ele>4</ele>
        <time>2016-09-04T09:14:26+02:00</time>
      </trkpt>
      <trkpt lat="46.15898" lon="-1.14776">
        <ele>4</ele>
        <time>2016-09-04T09:14:31+02:00</time>
      </trkpt>
      <trkpt lat="46.15895" lon="-1.1478">
        <ele>5</ele>
        <time>2016-09-04T09:14:36+02:00</time>
      </trkpt>
      <trkpt lat="46.15896" lon="-1.148">
        <ele>5</ele>
        <time>2016-09-04T09:14:41+02:00</time>
      </trkpt>
      <trkpt lat="46.15898" lon="-1.14827">
        <ele>5</ele>
        <time>2016-09-04T09:14:46+02:00</time>
      </trkpt>
      <trkpt lat="46.15895" lon="-1.14847">
        <ele>5</ele>
        <time>2016-09-04T09:14:51+02:00</time>
      </trkpt>
      <trkpt lat="46.15897" lon="-1.14867">
        <ele>6</ele>
        <time>2016-09-04T09:14:56+02:00</time>
      </trkpt>
      <trkpt lat="46.15895" lon="-1.14885">
        <ele>6</ele>
        <time>2016-09-04T09:15:01+02:00</time>
      </trkpt>
      <trkpt lat="46.15894" lon="-1.14915">
        <ele>7</ele>
        <time>2016-09-04T09:15:06+02:00</time>
      </trkpt>
      <trkpt lat="46.15887" lon="-1.14936">
        <ele>7</ele>
        <time>2016-09-04T09:15:11+02:00</time>
      </trkpt>
      <trkpt lat="46.15881" lon="-1.14955">
        <ele>8</ele>
        <time>2016-09-04T09:15:16+02:00</time>
      </trkpt>
      <trkpt lat="46.15874" lon="-1.14977">
        <ele>8</ele>
        <time>2016-09-04T09:15:21+02:00</time>
      </trkpt>
      <trkpt lat="46.15864" lon="-1.14995">
        <ele>8</ele>
        <time>2016-09-04T09:15:26+02:00</time>
      </trkpt>
      <trkpt lat="46.1586" lon="-1.15011">
        <ele>8</ele>
        <time>2016-09-04T09:15:31+02:00</time>
      </trkpt>
      <trkpt lat="46.15856" lon="-1.15015">
        <ele>8</ele>
        <time>2016-09-04T09:15:36+02:00</time>
      </trkpt>
      <trkpt lat="46.15853" lon="-1.15028">
        <ele>8</ele>
        <time>2016-09-04T09:15:41+02:00</time>
      </trkpt>
      <trkpt lat="46.15864" lon="-1.15041">
        <ele>8</ele>
        <time>2016-09-04T09:15:46+02:00</time>
      </trkpt>
      <trkpt lat="46.15863" lon="-1.15038">
        <ele>8</ele>
        <time>2016-09-04T09:15:51+02:00</time>
      </trkpt>
      <trkpt lat="46.1587" lon="-1.15056">
        <ele>8</ele>
        <time>2016-09-04T09:15:56+02:00</time>
      </trkpt>
      <trkpt lat="46.15875" lon="-1.15076">
        <ele>8</ele>
        <time>2016-09-04T09:16:01+02:00</time>
      </trkpt>
      <trkpt lat="46.15874" lon="-1.15111">
        <ele>9</ele>
        <time>2016-09-04T09:16:06+02:00</time>
      </trkpt>
      <trkpt lat="46.15878" lon="-1.15131">
        <ele>9</ele>
        <time>2016-09-04T09:16:11+02:00</time>
      </trkpt>
      <trkpt lat="46.15883" lon="-1.15147">
        <ele>10</ele>
        <time>2016-09-04T09:16:16+02:00</time>
      </trkpt>
      <trkpt lat="46.15892" lon="-1.15159">
        <ele>11</ele>
        <time>2016-09-04T09:16:21+02:00</time>
      </trkpt>
      <trkpt lat="46.15899" lon="-1.15173">
        <ele>12</ele>
        <time>2016-09-04T09:16:26+02:00</time>
      </trkpt>
      <trkpt lat="46.15902" lon="-1.15184">
        <ele>12</ele>
        <time>2016-09-04T09:16:31+02:00</time>
      </trkpt>
      <trkpt lat="46.15889" lon="-1.15205">
        <ele>11</ele>
        <time>2016-09-04T09:16:36+02:00</time>
      </trkpt>
      <trkpt lat="46.15882" lon="-1.15224">
        <ele>10</ele>
        <time>2016-09-04T09:16:41+02:00</time>
      </trkpt>
      <trkpt lat="46.15877" lon="-1.15246">
        <ele>10</ele>
        <time>2016-09-04T09:16:46+02:00</time>
      </trkpt>
      <trkpt lat="46.15871" lon="-1.15269">
        <ele>10</ele>
        <time>2016-09-04T09:16:51+02:00</time>
      </trkpt>
      <trkpt lat="46.15865" lon="-1.15295">
        <ele>10</ele>
        <time>2016-09-04T09:16:56+02:00</time>
      </trkpt>
      <trkpt lat="46.15861" lon="-1.15309">
        <ele>10</ele>
        <time>2016-09-04T09:17:01+02:00</time>
      </trkpt>
      <trkpt lat="46.15855" lon="-1.15334">
        <ele>10</ele>
        <time>2016-09-04T09:17:06+02:00</time>
      </trkpt>
      <trkpt lat="46.15849" lon="-1.15354">
        <ele>10</ele>
        <time>2016-09-04T09:17:11+02:00</time>
      </trkpt>
      <trkpt lat="46.15842" lon="-1.15384">
        <ele>10</ele>
        <time>2016-09-04T09:17:16+02:00</time>
      </trkpt>
      <trkpt lat="46.15828" lon="-1.15374">
        <ele>10</ele>
        <time>2016-09-04T09:17:21+02:00</time>
      </trkpt>
      <trkpt lat="46.15811" lon="-1.15359">
        <ele>9</ele>
        <time>2016-09-04T09:17:26+02:00</time>
      </trkpt>
      <trkpt lat="46.15789" lon="-1.15335">
        <ele>6</ele>
        <time>2016-09-04T09:17:31+02:00</time>
      </trkpt>
      <trkpt lat="46.15787" lon="-1.1533">
        <ele>6</ele>
        <time>2016-09-04T09:17:36+02:00</time>
      </trkpt>
      <trkpt lat="46.15782" lon="-1.15339">
        <ele>6</ele>
        <time>2016-09-04T09:17:41+02:00</time>
      </trkpt>
      <trkpt lat="46.15782" lon="-1.15339">
        <ele>6</ele>
        <time>2016-09-04T09:17:46+02:00</time>
      </trkpt>
      <trkpt lat="46.15772" lon="-1.1534">
        <ele>6</ele>
        <time>2016-09-04T09:17:51+02:00</time>
      </trkpt>
      <trkpt lat="46.1577" lon="-1.15336">
        <ele>5</ele>
        <time>2016-09-04T09:17:56+02:00</time>
      </trkpt>
      <trkpt lat="46.15768" lon="-1.15337">
        <ele>5</ele>
        <time>2016-09-04T09:18:01+02:00</time>
      </trkpt>
      <trkpt lat="46.15763" lon="-1.15339">
        <ele>5</ele>
        <time>2016-09-04T09:18:06+02:00</time>
      </trkpt>
      <trkpt lat="46.15733" lon="-1.15351">
        <ele>4</ele>
        <time>2016-09-04T09:18:11+02:00</time>
      </trkpt>
      <trkpt lat="46.15717" lon="-1.15365">
        <ele>5</ele>
        <time>2016-09-04T09:18:16+02:00</time>
      </trkpt>
      <trkpt lat="46.15699" lon="-1.15375">
        <ele>5</ele>
        <time>2016-09-04T09:18:21+02:00</time>
      </trkpt>
      <trkpt lat="46.15691" lon="-1.15378">
        <ele>5</ele>
        <time>2016-09-04T09:18:26+02:00</time>
      </trkpt>
      <trkpt lat="46.15683" lon="-1.15382">
        <ele>4</ele>
        <time>2016-09-04T09:18:31+02:00</time>
      </trkpt>
      <trkpt lat="46.15662" lon="-1.15399">
        <ele>5</ele>
        <time>2016-09-04T09:18:36+02:00</time>
      </trkpt>
      <trkpt lat="46.15643" lon="-1.15414">
        <ele>5</ele>
        <time>2016-09-04T09:18:41+02:00</time>
      </trkpt>
      <trkpt lat="46.15619" lon="-1.15424">
        <ele>4</ele>
        <time>2016-09-04T09:18:46+02:00</time>
      </trkpt>
      <trkpt lat="46.15618" lon="-1.15424">
        <ele>4</ele>
        <time>2016-09-04T09:18:51+02:00</time>
      </trkpt>
      <trkpt lat="46.15613" lon="-1.1543">
        <ele>4</ele>
        <time>2016-09-04T09:18:56+02:00</time>
      </trkpt>
      <trkpt lat="46.15613" lon="-1.15431">
        <ele>4</ele>
        <time>2016-09-04T09:19:01+02:00</time>
      </trkpt>
      <trkpt lat="46.15605" lon="-1.15437">
        <ele>4</ele>
        <time>2016-09-04T09:19:06+02:00</time>
      </trkpt>
      <trkpt lat="46.15602" lon="-1.15436">
        <ele>4</ele>
        <time>2016-09-04T09:19:11+02:00</time>
      </trkpt>
      <trkpt lat="46.1559" lon="-1.15431">
        <ele>3</ele>
        <time>2016-09-04T09:19:16+02:00</time>
      </trkpt>
      <trkpt lat="46.15581" lon="-1.15437">
        <ele>3</ele>
        <time>2016-09-04T09:19:21+02:00</time>
      </trkpt>
      <trkpt lat="46.1558" lon="-1.15469">
        <ele>5</ele>
        <time>2016-09-04T09:19:26+02:00</time>
      </trkpt>
      <trkpt lat="46.15579" lon="-1.15485">
        <ele>6</ele>
        <time>2016-09-04T09:19:31+02:00</time>
      </trkpt>
      <trkpt lat="46.15575" lon="-1.15502">
        <ele>6</ele>
        <time>2016-09-04T09:19:36+02:00</time>
      </trkpt>
      <trkpt lat="46.15578" lon="-1.15508">
        <ele>7</ele>
        <time>2016-09-04T09:19:41+02:00</time>
      </trkpt>
      <trkpt lat="46.15578" lon="-1.15507">
        <ele>7</ele>
        <time>2016-09-04T09:19:46+02:00</time>
      </trkpt>
      <trkpt lat="46.1558" lon="-1.1553">
        <ele>7</ele>
        <time>2016-09-04T09:19:51+02:00</time>
      </trkpt>
      <trkpt lat="46.1558" lon="-1.15533">
        <ele>7</ele>
        <time>2016-09-04T09:19:56+02:00</time>
      </trkpt>
      <trkpt lat="46.1558" lon="-1.15563">
        <ele>7</ele>
        <time>2016-09-04T09:20:01+02:00</time>
      </trkpt>
      <trkpt lat="46.1558" lon="-1.15588">
        <ele>7</ele>
        <time>2016-09-04T09:20:06+02:00</time>
      </trkpt>
      <trkpt lat="46.15581" lon="-1.15613">
        <ele>7</ele>
        <time>2016-09-04T09:20:11+02:00</time>
      </trkpt>
      <trkpt lat="46.15581" lon="-1.15628">
        <ele>7</ele>
        <time>2016-09-04T09:20:16+02:00</time>
      </trkpt>
      <trkpt lat="46.15582" lon="-1.15652">
        <ele>7</ele>
        <time>2016-09-04T09:20:21+02:00</time>
      </trkpt>
      <trkpt lat="46.15584" lon="-1.15669">
        <ele>7</ele>
        <time>2016-09-04T09:20:26+02:00</time>
      </trkpt>
      <trkpt lat="46.15588" lon="-1.15689">
        <ele>7</ele>
        <time>2016-09-04T09:20:31+02:00</time>
      </trkpt>
      <trkpt lat="46.15589" lon="-1.1569">
        <ele>7</ele>
        <time>2016-09-04T09:20:36+02:00</time>
      </trkpt>
      <trkpt lat="46.1559" lon="-1.15698">
        <ele>7</ele>
        <time>2016-09-04T09:20:41+02:00</time>
      </trkpt>
      <trkpt lat="46.1559" lon="-1.15701">
        <ele>7</ele>
        <time>2016-09-04T09:20:46+02:00</time>
      </trkpt>
      <trkpt lat="46.15588" lon="-1.15714">
        <ele>7</ele>
        <time>2016-09-04T09:20:51+02:00</time>
      </trkpt>
      <trkpt lat="46.15583" lon="-1.15725">
        <ele>6</ele>
        <time>2016-09-04T09:20:56+02:00</time>
      </trkpt>
      <trkpt lat="46.15576" lon="-1.15753">
        <ele>6</ele>
        <time>2016-09-04T09:21:01+02:00</time>
      </trkpt>
      <trkpt lat="46.15568" lon="-1.1577">
        <ele>5</ele>
        <time>2016-09-04T09:21:06+02:00</time>
      </trkpt>
      <trkpt lat="46.15563" lon="-1.1578">
        <ele>5</ele>
        <time>2016-09-04T09:21:11+02:00</time>
      </trkpt>
      <trkpt lat="46.15557" lon="-1.1579">
        <ele>5</ele>
        <time>2016-09-04T09:21:16+02:00</time>
      </trkpt>
      <trkpt lat="46.15557" lon="-1.15804">
        <ele>5</ele>
        <time>2016-09-04T09:21:21+02:00</time>
      </trkpt>
      <trkpt lat="46.15547" lon="-1.15846">
        <ele>4</ele>
        <time>2016-09-04T09:21:26+02:00</time>
      </trkpt>
      <trkpt lat="46.15537" lon="-1.15864">
        <ele>3</ele>
        <time>2016-09-04T09:21:31+02:00</time>
      </trkpt>
      <trkpt lat="46.15534" lon="-1.15873">
        <ele>3</ele>
        <time>2016-09-04T09:21:36+02:00</time>
      </trkpt>
      <trkpt lat="46.15533" lon="-1.15875">
        <ele>3</ele>
        <time>2016-09-04T09:21:41+02:00</time>
      </trkpt>
      <trkpt lat="46.15531" lon="-1.15883">
        <ele>3</ele>
        <time>2016-09-04T09:21:46+02:00</time>
      </trkpt>
      <trkpt lat="46.1553" lon="-1.15887">
        <ele>3</ele>
        <time>2016-09-04T09:21:51+02:00</time>
      </trkpt>
      <trkpt lat="46.15528" lon="-1.15895">
        <ele>3</ele>
        <time>2016-09-04T09:21:56+02:00</time>
      </trkpt>
      <trkpt lat="46.15525" lon="-1.15908">
        <ele>3</ele>
        <time>2016-09-04T09:22:01+02:00</time>
      </trkpt>
      <trkpt lat="46.15513" lon="-1.15941">
        <ele>2</ele>
        <time>2016-09-04T09:22:06+02:00</time>
      </trkpt>
      <trkpt lat="46.15509" lon="-1.1595">
        <ele>2</ele>
        <time>2016-09-04T09:22:11+02:00</time>
      </trkpt>
      <trkpt lat="46.15499" lon="-1.15974">
        <ele>1</ele>
        <time>2016-09-04T09:22:16+02:00</time>
      </trkpt>
      <trkpt lat="46.1551" lon="-1.15998">
        <ele>1</ele>
        <time>2016-09-04T09:22:21+02:00</time>
      </trkpt>
      <trkpt lat="46.15524" lon="-1.16019">
        <ele>1</ele>
        <time>2016-09-04T09:22:26+02:00</time>
      </trkpt>
      <trkpt lat="46.15544" lon="-1.16041">
        <ele>2</ele>
        <time>2016-09-04T09:22:31+02:00</time>
      </trkpt>
      <trkpt lat="46.15564" lon="-1.16064">
        <ele>2</ele>
        <time>2016-09-04T09:22:36+02:00</time>
      </trkpt>
      <trkpt lat="46.15582" lon="-1.16085">
        <ele>2</ele>
        <time>2016-09-04T09:22:41+02:00</time>
      </trkpt>
      <trkpt lat="46.15586" lon="-1.1609">
        <ele>2</ele>
        <time>2016-09-04T09:22:46+02:00</time>
      </trkpt>
      <trkpt lat="46.15606" lon="-1.16103">
        <ele>2</ele>
        <time>2016-09-04T09:22:51+02:00</time>
      </trkpt>
      <trkpt lat="46.15611" lon="-1.16102">
        <ele>2</ele>
        <time>2016-09-04T09:22:56+02:00</time>
      </trkpt>
      <trkpt lat="46.15616" lon="-1.16105">
        <ele>3</ele>
        <time>2016-09-04T09:23:01+02:00</time>
      </trkpt>
      <trkpt lat="46.1562" lon="-1.16107">
        <ele>3</ele>
        <time>2016-09-04T09:23:06+02:00</time>
      </trkpt>
      <trkpt lat="46.15635" lon="-1.1611">
        <ele>3</ele>
        <time>2016-09-04T09:23:11+02:00</time>
      </trkpt>
      <trkpt lat="46.15644" lon="-1.16125">
        <ele>3</ele>
        <time>2016-09-04T09:23:16+02:00</time>
      </trkpt>
      <trkpt lat="46.15644" lon="-1.16138">
        <ele>3</ele>
        <time>2016-09-04T09:23:21+02:00</time>
      </trkpt>
      <trkpt lat="46.15643" lon="-1.16155">
        <ele>3</ele>
        <time>2016-09-04T09:23:26+02:00</time>
      </trkpt>
      <trkpt lat="46.15645" lon="-1.16166">
        <ele>3</ele>
        <time>2016-09-04T09:23:31+02:00</time>
      </trkpt>
      <trkpt lat="46.15644" lon="-1.16173">
        <ele>3</ele>
        <time>2016-09-04T09:23:36+02:00</time>
      </trkpt>
      <trkpt lat="46.15656" lon="-1.16197">
        <ele>3</ele>
        <time>2016-09-04T09:23:41+02:00</time>
      </trkpt>
      <trkpt lat="46.15667" lon="-1.16209">
        <ele>4</ele>
        <time>2016-09-04T09:23:46+02:00</time>
      </trkpt>
      <trkpt lat="46.15684" lon="-1.1622">
        <ele>3</ele>
        <time>2016-09-04T09:23:51+02:00</time>
      </trkpt>
      <trkpt lat="46.15695" lon="-1.1622">
        <ele>3</ele>
        <time>2016-09-04T09:23:56+02:00</time>
      </trkpt>
      <trkpt lat="46.15714" lon="-1.16222">
        <ele>3</ele>
        <time>2016-09-04T09:24:01+02:00</time>
      </trkpt>
      <trkpt lat="46.15717" lon="-1.16221">
        <ele>3</ele>
        <time>2016-09-04T09:24:06+02:00</time>
      </trkpt>
      <trkpt lat="46.1573" lon="-1.16207">
        <ele>3</ele>
        <time>2016-09-04T09:24:11+02:00</time>
      </trkpt>
      <trkpt lat="46.15732" lon="-1.16199">
        <ele>3</ele>
        <time>2016-09-04T09:24:16+02:00</time>
      </trkpt>
      <trkpt lat="46.15737" lon="-1.16181">
        <ele>2</ele>
        <time>2016-09-04T09:24:21+02:00</time>
      </trkpt>
      <trkpt lat="46.15739" lon="-1.16172">
        <ele>2</ele>
        <time>2016-09-04T09:24:26+02:00</time>
      </trkpt>
      <trkpt lat="46.15741" lon="-1.16145">
        <ele>2</ele>
        <time>2016-09-04T09:24:31+02:00</time>
      </trkpt>
      <trkpt lat="46.15743" lon="-1.16135">
        <ele>2</ele>
        <time>2016-09-04T09:24:36+02:00</time>
      </trkpt>
      <trkpt lat="46.15739" lon="-1.16125">
        <ele>2</ele>
        <time>2016-09-04T09:24:41+02:00</time>
      </trkpt>
      <trkpt lat="46.15737" lon="-1.16116">
        <ele>2</ele>
        <time>2016-09-04T09:24:46+02:00</time>
      </trkpt>
      <trkpt lat="46.1573" lon="-1.16107">
        <ele>2</ele>
        <time>2016-09-04T09:24:51+02:00</time>
      </trkpt>
      <trkpt lat="46.15718" lon="-1.16094">
        <ele>2</ele>
        <time>2016-09-04T09:24:56+02:00</time>
      </trkpt>
      <trkpt lat="46.1571" lon="-1.16093">
        <ele>2</ele>
        <time>2016-09-04T09:25:01+02:00</time>
      </trkpt>
      <trkpt lat="46.15698" lon="-1.16085">
        <ele>3</ele>
        <time>2016-09-04T09:25:06+02:00</time>
      </trkpt>
      <trkpt lat="46.15692" lon="-1.16081">
        <ele>3</ele>
        <time>2016-09-04T09:25:11+02:00</time>
      </trkpt>
      <trkpt lat="46.15687" lon="-1.16075">
        <ele>3</ele>
        <time>2016-09-04T09:25:16+02:00</time>
      </trkpt>
      <trkpt lat="46.15673" lon="-1.16074">
        <ele>3</ele>
        <time>2016-09-04T09:25:21+02:00</time>
      </trkpt>
      <trkpt lat="46.15674" lon="-1.16074">
        <ele>3</ele>
        <time>2016-09-04T09:25:26+02:00</time>
      </trkpt>
      <trkpt lat="46.1568" lon="-1.16074">
        <ele>3</ele>
        <time>2016-09-04T09:25:31+02:00</time>
      </trkpt>
      <trkpt lat="46.15693" lon="-1.16066">
        <ele>3</ele>
        <time>2016-09-04T09:25:36+02:00</time>
      </trkpt>
      <trkpt lat="46.15694" lon="-1.16065">
        <ele>3</ele>
        <time>2016-09-04T09:25:41+02:00</time>
      </trkpt>
      <trkpt lat="46.15706" lon="-1.16063">
        <ele>3</ele>
        <time>2016-09-04T09:25:46+02:00</time>
      </trkpt>
      <trkpt lat="46.15719" lon="-1.16061">
        <ele>2</ele>
        <time>2016-09-04T09:25:51+02:00</time>
      </trkpt>
      <trkpt lat="46.15726" lon="-1.16061">
        <ele>2</ele>
        <time>2016-09-04T09:25:56+02:00</time>
      </trkpt>
      <trkpt lat="46.15744" lon="-1.16058">
        <ele>2</ele>
        <time>2016-09-04T09:26:01+02:00</time>
      </trkpt>
      <trkpt lat="46.15763" lon="-1.16058">
        <ele>2</ele>
        <time>2016-09-04T09:26:06+02:00</time>
      </trkpt>
      <trkpt lat="46.1577" lon="-1.16056">
        <ele>2</ele>
        <time>2016-09-04T09:26:11+02:00</time>
      </trkpt>
      <trkpt lat="46.15784" lon="-1.16058">
        <ele>2</ele>
        <time>2016-09-04T09:26:16+02:00</time>
      </trkpt>
      <trkpt lat="46.15784" lon="-1.16058">
        <ele>2</ele>
        <time>2016-09-04T09:26:21+02:00</time>
      </trkpt>
      <trkpt lat="46.15785" lon="-1.1606">
        <ele>2</ele>
        <time>2016-09-04T09:26:26+02:00</time>
      </trkpt>
      <trkpt lat="46.1579" lon="-1.16058">
        <ele>2</ele>
        <time>2016-09-04T09:26:31+02:00</time>
      </trkpt>
      <trkpt lat="46.15793" lon="-1.16057">
        <ele>3</ele>
        <time>2016-09-04T09:26:36+02:00</time>
      </trkpt>
      <trkpt lat="46.15795" lon="-1.16056">
        <ele>3</ele>
        <time>2016-09-04T09:26:41+02:00</time>
      </trkpt>
      <trkpt lat="46.15798" lon="-1.16055">
        <ele>3</ele>
        <time>2016-09-04T09:26:46+02:00</time>
      </trkpt>
      <trkpt lat="46.15812" lon="-1.16053">
        <ele>3</ele>
        <time>2016-09-04T09:26:51+02:00</time>
      </trkpt>
      <trkpt lat="46.15812" lon="-1.16052">
        <ele>3</ele>
        <time>2016-09-04T09:26:56+02:00</time>
      </trkpt>
      <trkpt lat="46.15812" lon="-1.16051">
        <ele>3</ele>
        <time>2016-09-04T09:27:01+02:00</time>
      </trkpt>
      <trkpt lat="46.15812" lon="-1.16051">
        <ele>3</ele>
        <time>2016-09-04T09:27:06+02:00</time>
      </trkpt>
      <trkpt lat="46.15814" lon="-1.1605">
        <ele>3</ele>
        <time>2016-09-04T09:27:11+02:00</time>
      </trkpt>
      <trkpt lat="46.15815" lon="-1.16049">
        <ele>3</ele>
        <time>2016-09-04T09:27:16+02:00</time>
      </trkpt>
      <trkpt lat="46.15821" lon="-1.16047">
        <ele>3</ele>
        <time>2016-09-04T09:27:21+02:00</time>
      </trkpt>
      <trkpt lat="46.15834" lon="-1.1604">
        <ele>3</ele>
        <time>2016-09-04T09:27:26+02:00</time>
      </trkpt>
      <trkpt lat="46.15846" lon="-1.16034">
        <ele>3</ele>
        <time>2016-09-04T09:27:31+02:00</time>
      </trkpt>
      <trkpt lat="46.15864" lon="-1.16028">
        <ele>3</ele>
        <time>2016-09-04T09:27:36+02:00</time>
      </trkpt>
      <trkpt lat="46.15866" lon="-1.16022">
        <ele>3</ele>
        <time>2016-09-04T09:27:41+02:00</time>
      </trkpt>
      <trkpt lat="46.15865" lon="-1.16006">
        <ele>3</ele>
        <time>2016-09-04T09:27:46+02:00</time>
      </trkpt>
      <trkpt lat="46.15863" lon="-1.15991">
        <ele>3</ele>
        <time>2016-09-04T09:27:51+02:00</time>
      </trkpt>
      <trkpt lat="46.15864" lon="-1.15988">
        <ele>4</ele>
        <time>2016-09-04T09:27:56+02:00</time>
      </trkpt>
      <trkpt lat="46.15871" lon="-1.15972">
        <ele>4</ele>
        <time>2016-09-04T09:28:01+02:00</time>
      </trkpt>
      <trkpt lat="46.15873" lon="-1.15958">
        <ele>4</ele>
        <time>2016-09-04T09:28:06+02:00</time>
      </trkpt>
      <trkpt lat="46.15888" lon="-1.15941">
        <ele>4</ele>
        <time>2016-09-04T09:28:11+02:00</time>
      </trkpt>
      <trkpt lat="46.15893" lon="-1.15934">
        <ele>4</ele>
        <time>2016-09-04T09:28:16+02:00</time>
      </trkpt>
      <trkpt lat="46.15899" lon="-1.15929">
        <ele>4</ele>
        <time>2016-09-04T09:28:21+02:00</time>
      </trkpt>
      <trkpt lat="46.15904" lon="-1.15921">
        <ele>4</ele>
        <time>2016-09-04T09:28:26+02:00</time>
      </trkpt>
      <trkpt lat="46.15922" lon="-1.15899">
        <ele>4</ele>
        <time>2016-09-04T09:28:31+02:00</time>
      </trkpt>
      <trkpt lat="46.15941" lon="-1.15875">
        <ele>5</ele>
        <time>2016-09-04T09:28:36+02:00</time>
      </trkpt>
      <trkpt lat="46.15959" lon="-1.15858">
        <ele>5</ele>
        <time>2016-09-04T09:28:41+02:00</time>
      </trkpt>
      <trkpt lat="46.15972" lon="-1.15841">
        <ele>5</ele>
        <time>2016-09-04T09:28:46+02:00</time>
      </trkpt>
      <trkpt lat="46.15981" lon="-1.15828">
        <ele>6</ele>
        <time>2016-09-04T09:28:51+02:00</time>
      </trkpt>
      <trkpt lat="46.15994" lon="-1.15812">
        <ele>6</ele>
        <time>2016-09-04T09:28:56+02:00</time>
      </trkpt>
      <trkpt lat="46.15995" lon="-1.15809">
        <ele>6</ele>
        <time>2016-09-04T09:29:01+02:00</time>
      </trkpt>
      <trkpt lat="46.16012" lon="-1.15776">
        <ele>6</ele>
        <time>2016-09-04T09:29:06+02:00</time>
      </trkpt>
      <trkpt lat="46.1602" lon="-1.1576">
        <ele>6</ele>
        <time>2016-09-04T09:29:11+02:00</time>
      </trkpt>
      <trkpt lat="46.16026" lon="-1.15751">
        <ele>6</ele>
        <time>2016-09-04T09:29:16+02:00</time>
      </trkpt>
      <trkpt lat="46.16028" lon="-1.15746">
        <ele>6</ele>
        <time>2016-09-04T09:29:21+02:00</time>
      </trkpt>
      <trkpt lat="46.16031" lon="-1.15739">
        <ele>6</ele>
        <time>2016-09-04T09:29:26+02:00</time>
      </trkpt>
      <trkpt lat="46.16033" lon="-1.15732">
        <ele>6</ele>
        <time>2016-09-04T09:29:31+02:00</time>
      </trkpt>
      <trkpt lat="46.16035" lon="-1.1572">
        <ele>6</ele>
        <time>2016-09-04T09:29:36+02:00</time>
      </trkpt>
      <trkpt lat="46.16035" lon="-1.15713">
        <ele>6</ele>
        <time>2016-09-04T09:29:41+02:00</time>
      </trkpt>
      <trkpt lat="46.16036" lon="-1.1571">
        <ele>6</ele>
        <time>2016-09-04T09:29:46+02:00</time>
      </trkpt>
      <trkpt lat="46.16039" lon="-1.157">
        <ele>5</ele>
        <time>2016-09-04T09:29:51+02:00</time>
      </trkpt>
      <trkpt lat="46.16032" lon="-1.15686">
        <ele>5</ele>
        <time>2016-09-04T09:29:56+02:00</time>
      </trkpt>
      <trkpt lat="46.16027" lon="-1.15672">
        <ele>5</ele>
        <time>2016-09-04T09:30:01+02:00</time>
      </trkpt>
      <trkpt lat="46.16026" lon="-1.15654">
        <ele>5</ele>
        <time>2016-09-04T09:30:06+02:00</time>
      </trkpt>
      <trkpt lat="46.16021" lon="-1.1564">
        <ele>6</ele>
        <time>2016-09-04T09:30:11+02:00</time>
      </trkpt>
      <trkpt lat="46.16016" lon="-1.15628">
        <ele>6</ele>
        <time>2016-09-04T09:30:16+02:00</time>
      </trkpt>
      <trkpt lat="46.1601" lon="-1.15615">
        <ele>7</ele>
        <time>2016-09-04T09:30:21+02:00</time>
      </trkpt>
      <trkpt lat="46.1601" lon="-1.15611">
        <ele>7</ele>
        <time>2016-09-04T09:30:26+02:00</time>
      </trkpt>
      <trkpt lat="46.16009" lon="-1.15604">
        <ele>7</ele>
        <time>2016-09-04T09:30:31+02:00</time>
      </trkpt>
      <trkpt lat="46.16011" lon="-1.15598">
        <ele>7</ele>
        <time>2016-09-04T09:30:36+02:00</time>
      </trkpt>
      <trkpt lat="46.16013" lon="-1.15597">
        <ele>7</ele>
        <time>2016-09-04T09:30:41+02:00</time>
      </trkpt>
      <trkpt lat="46.16017" lon="-1.15596">
        <ele>7</ele>
        <time>2016-09-04T09:30:46+02:00</time>
      </trkpt>
      <trkpt lat="46.16028" lon="-1.15591">
        <ele>7</ele>
        <time>2016-09-04T09:30:51+02:00</time>
      </trkpt>
      <trkpt lat="46.16047" lon="-1.1557">
        <ele>8</ele>
        <time>2016-09-04T09:30:56+02:00</time>
      </trkpt>
      <trkpt lat="46.16058" lon="-1.15565">
        <ele>8</ele>
        <time>2016-09-04T09:31:01+02:00</time>
      </trkpt>
      <trkpt lat="46.16075" lon="-1.1555">
        <ele>7</ele>
        <time>2016-09-04T09:31:06+02:00</time>
      </trkpt>
      <trkpt lat="46.16081" lon="-1.15549">
        <ele>7</ele>
        <time>2016-09-04T09:31:11+02:00</time>
      </trkpt>
      <trkpt lat="46.16091" lon="-1.15538">
        <ele>7</ele>
        <time>2016-09-04T09:31:16+02:00</time>
      </trkpt>
      <trkpt lat="46.16106" lon="-1.15531">
        <ele>7</ele>
        <time>2016-09-04T09:31:21+02:00</time>
      </trkpt>
      <trkpt lat="46.16101" lon="-1.15519">
        <ele>7</ele>
        <time>2016-09-04T09:31:26+02:00</time>
      </trkpt>
      <trkpt lat="46.16097" lon="-1.15508">
        <ele>7</ele>
        <time>2016-09-04T09:31:31+02:00</time>
      </trkpt>
      <trkpt lat="46.16097" lon="-1.15499">
        <ele>7</ele>
        <time>2016-09-04T09:31:36+02:00</time>
      </trkpt>
      <trkpt lat="46.16092" lon="-1.15472">
        <ele>8</ele>
        <time>2016-09-04T09:31:41+02:00</time>
      </trkpt>
      <trkpt lat="46.16089" lon="-1.1545">
        <ele>9</ele>
        <time>2016-09-04T09:31:46+02:00</time>
      </trkpt>
      <trkpt lat="46.16084" lon="-1.15431">
        <ele>10</ele>
        <time>2016-09-04T09:31:51+02:00</time>
      </trkpt>
      <trkpt lat="46.16081" lon="-1.15408">
        <ele>12</ele>
        <time>2016-09-04T09:31:56+02:00</time>
      </trkpt>
      <trkpt lat="46.16079" lon="-1.15394">
        <ele>12</ele>
        <time>2016-09-04T09:32:01+02:00</time>
      </trkpt>
      <trkpt lat="46.16091" lon="-1.15382">
        <ele>13</ele>
        <time>2016-09-04T09:32:06+02:00</time>
      </trkpt>
      <trkpt lat="46.16108" lon="-1.15385">
        <ele>12</ele>
        <time>2016-09-04T09:32:11+02:00</time>
      </trkpt>
      <trkpt lat="46.16115" lon="-1.1538">
        <ele>12</ele>
        <time>2016-09-04T09:32:16+02:00</time>
      </trkpt>
      <trkpt lat="46.16122" lon="-1.15378">
        <ele>12</ele>
        <time>2016-09-04T09:32:21+02:00</time>
      </trkpt>
      <trkpt lat="46.16136" lon="-1.15375">
        <ele>12</ele>
        <time>2016-09-04T09:32:26+02:00</time>
      </trkpt>
      <trkpt lat="46.16147" lon="-1.15366">
        <ele>12</ele>
        <time>2016-09-04T09:32:31+02:00</time>
      </trkpt>
      <trkpt lat="46.16166" lon="-1.15359">
        <ele>12</ele>
        <time>2016-09-04T09:32:36+02:00</time>
      </trkpt>
      <trkpt lat="46.1619" lon="-1.15353">
        <ele>11</ele>
        <time>2016-09-04T09:32:41+02:00</time>
      </trkpt>
      <trkpt lat="46.16196" lon="-1.1533">
        <ele>11</ele>
        <time>2016-09-04T09:32:46+02:00</time>
      </trkpt>
      <trkpt lat="46.16203" lon="-1.15316">
        <ele>11</ele>
        <time>2016-09-04T09:32:51+02:00</time>
      </trkpt>
      <trkpt lat="46.16212" lon="-1.15311">
        <ele>11</ele>
        <time>2016-09-04T09:32:56+02:00</time>
      </trkpt>
    </trkseg>
  </trk>
</gpx>